Upstream stations:
Downstream station:
SHEF ID: IOLK1 NEOSHO RIVER NEAR IOLA
STATION TYPE:
Regulating: Stage = 15.00, Flow = 18228
PRECIP STAGE RIV-FLOW BAT-LOAD
in ft cfs volt
Ccp-Rev Ccp-Rev Ccp-Rev Ccp-Rev
(US/Central)
04/01 00:00 0.00 10.09 8720 12.57
04/01 01:00 0.00 10.02 8400 12.56
04/01 02:00 0.00 10.01 8354 12.53
04/01 03:00 0.00 10.00 8309 12.50
04/01 04:00 0.00 10.03 8445 12.48
04/01 05:00 0.00 9.99 8264 12.46
04/01 06:00 0.00 10.04 8490 12.42
04/01 07:00 0.00 9.99 8264 12.40
04/01 08:00 0.00 10.02 8400 12.39
04/01 09:00 0.00 10.06 8582 13.64
04/01 10:00 0.00 9.99 8264 13.82
04/01 11:00 0.00 10.04 8490 13.70
04/01 12:00 0.00 9.97 8174 13.42
04/01 13:00 0.00 10.02 8400 13.26
04/01 14:00 0.00 10.00 8309 13.21
04/01 15:00 0.00 10.01 8354 13.19
04/01 16:00 0.00 9.97 8174 13.16
04/01 17:00 0.00 9.99 8264 13.13
04/01 18:00 0.00 10.03 8445 13.06
04/01 19:00 0.00 10.03 8445 13.03
04/01 20:00 0.00 9.99 8264 12.79
04/01 21:00 0.00 9.91 7908 12.73
04/01 22:00 0.00 9.93 7996 12.67
04/01 23:00 0.00 9.90 7864 12.65